Aviation Digital Data Service (ADDS)

Output produced by METARs form (2310 UTC 15 August 2018)
found at http://www.aviationweather.gov/adds/metars/
 
GFLL 152100Z 29006KT 9999 BKN011 FEW027CB 26/23 Q1014 RMK CB-N/NE
TAF GFLL 151700Z 1518/1624 24006KT 9999 SCT014 FEW027CB BKN080 
     FM152000 24008KT 8000 TS/-TSRA BKN011 FEW026CB 
     TEMPO 1600/1604 VRB03KT 9999 BKN013 SCT080